Aeroporto :
LOGIN :

Iscrizione | Disclaimer

   EN    FR    IT 

 










Sommario :    VFR   VFR Marginale   IFR   IFR Intensivo   IFR Molto Intensivo
Visibilità : 
Base nubi : 
>= 8 km
>= 3000ft
5 / 8 km
1000 / 3000 ft
1500m / 5 km
500 / 1000 ft
800 / 1500m
200 / 500 ft
< 800m
< 200 ft
Simboli :   Temporali  Nebbia  Neve Forte  Precipitazioni Forti  Vento > 20 kt
SIGMETs :   Varie  Temporali  Ghiacco  Turbolenza  Onda orograficha  Ceneri Vulcaniche






- Altitudine del aeroporto : 55 ft


EGNO - Warton Preston

ULTIMO METAR :
  • 270920Z 32012KT 270V340 9999 FEW018CB 04/01 Q1000

METARs OBSOLETI :
  • 270850Z 33010KT 9999 FEW030 04/01 Q0999
  • 270820Z 32007KT 9999 SCT030 03/01 Q0998
  • 270750Z 34014KT 9999 VCSH SCT020CB BKN032 03/01 Q0998
  • 270720Z 31006KT 9999 FEW020 SCT039 03/01 Q0997
  • 270650Z 31004KT 9999 SCT020 SCT023 03/01 Q0997

TAF TAF EGNO
Valido dal 27 a 09 ore il 27 a 18 ore UTC


270803Z 2709/2718 31008KT 9999 FEW020 SCT025
PROB30
TEMPO 2709/2718 34017G27KT 6000 SHRA BKN014
ATIS : +44 1772 856 060



MetMap, La meteo Aeronautica in un colpo d'occhio ! - Copyright ORBIFLY Dicembre 2007 - Disclaimer

ORBIFLY MET'MAP TEAM :

Programmazione e sviluppo : Alexandra Zaïnal
Concezione : Baudouin d'Aumeries
Aiuto per la programmazione : Marc-Olivier Méhu
Supporto tecnico e logistico : Manuel Goepfert
Aiuto per la traduzione : Arnaldo La Scala

Contatto : metmap@orbifly.com




FONTI E CREDITI :

   NOAA